AirNav   Phillips 66 Aviation Fuel
 
 300 users online  

84MO Holiday Inn Westport Heliport
St Louis, Missouri, USA

GOING TO ST LOUIS?


FAA INFORMATION EFFECTIVE 23 MAY 2019

Location

FAA Identifier: 84MO
Lat/Long: 38-41-38.1870N / 090-26-55.4270W
38-41.636450N / 090-26.923783W
38.6939408 / -90.4487297
(estimated)
Elevation: 600 ft. / 183 m (estimated)
Variation: 02E (1985)
From city: 15 miles NW of ST LOUIS, MO
Time zone: UTC -5 (UTC -6 during Standard Time)
Zip code: 63146

Heliport Operations

Heliport use: Private use. Permission required prior to landing
Activation date: 04/1983
Control tower: no
ARTCC: KANSAS CITY CENTER
FSS: SAINT LOUIS FLIGHT SERVICE STATION
Attendance: DAWN-2300
Wind indicator: no
Segmented circle: yes

Heliport Communications

WX ASOS at STL (5 nm NE): PHONE 314-890-4790
WX ASOS at SUS (10 nm W): 134.8 (314-890-7255)
WX ASOS at SET (14 nm N): 118.075 (636-250-4590)
WX ASOS at CPS (16 nm SE): PHONE 618-332-0001

Nearby radio navigation aids

VOR radial/distance  VOR name  Freq  Var
CSXr229/5.4CARDINAL VOR/DME116.4500E
STLr170/10.1ST LOUIS VORTAC117.4001E
FTZr085/24.5FORISTELL VORTAC110.8005E
TOYr260/25.0TROY VORTAC116.0004E

 
NDB name  Hdg/Dist  Freq  Var  ID
EAVES079/4.722701WFZ ..-. --..
OBLIO170/6.533801WLM .-.. --
ZUMAY236/9.840401WST ... -
CIVIC MEMORIAL238/21.926301WCVM -.-. ...- --

Heliport Services

Runway Information

Helipad H1

Dimensions: 86 x 86 ft. / 26 x 26 m
Surface: asphalt/concrete
Latitude: 38-41.636500N
Longitude: 090-26.923833W
Elevation: 600.0 ft.
Traffic pattern: leftleft

Heliport Ownership and Management from official FAA records

Ownership: Privately-owned
Owner: HOLIDAY INN WESTPORT
1973 CRAIGSHIRE DR.
ST. LOUIS, MO 63146
Phone 573-434-0100
ANITA M. SUMNER, ST. LOUIS HOTEL CORP.
Manager: RONALD 'HUCK' OBERLIN
1973 CRAIGSHIRE DRIVE
ST. LOUIS, MO 63146
Phone 314-434-0100

Additional Remarks

FOR CD CTC ST LOUIS APCH AT 314-890-1018.

Instrument Procedures

There are no published instrument procedures at 84MO.

Some nearby airports with instrument procedures:

1H0 - Creve Coeur Airport (3 nm NW)
KSTL - St Louis Lambert International Airport (5 nm NE)
KSUS - Spirit of St Louis Airport (10 nm W)
KSET - St Charles County Smartt Airport (14 nm N)
KCPS - St Louis Downtown Airport (16 nm SE)
 
Loc | Ops | Rwys | IFR | FBO | Links
Com | Nav | Svcs | Stats | Notes

Kansas City Aviation Department
 
Area around 84MO (Holiday Inn Westport Heliport)
 
Road maps at: MapQuest Bing Google
 
Aerial photo
No photo
 
Sectional chart

 
Airport distance calculator
Flying to Holiday Inn Westport Heliport? Find the distance to fly.

From to 84MO

Sunrise and sunset
Times for 19-Jun-2019
 Local
(UTC-5)
 Zulu
(UTC)
Morning civil twilight05:0610:06
Sunrise05:3810:38
Sunset20:2801:28
Evening civil twilight21:0002:00

Current date and time
Zulu (UTC)  19-Jun-2019 08:01:13
Local (UTC-5)  19-Jun-2019 03:01:13
 
METAR
KSTL 
5nm NE 
190751Z 09003KT 10SM BKN060 22/19 A2979 RMK AO2 SLP075 T02220194
KSUS 
10nm W 
190754Z AUTO 00000KT 9SM FEW047 FEW060 SCT095 22/21 A2976 RMK AO2 SLP071 T02220206
KSET 
14nm N 
190754Z AUTO A2977 RMK AO2 SLPNO PWINO $
KCPS 
16nm SE 
190753Z AUTO 00000KT 8SM BKN065 22/21 A2978 RMK AO2 SLP079 T02220206 $
TAF
KSTL 
5nm NE 
190520Z 1906/2012 VRB04KT P6SM SCT060 BKN250 FM190900 VRB04KT P6SM VCSH BKN050 FM191500 22007KT P6SM VCTS BKN040CB TEMPO 1922/1924 3SM TSRA OVC030CB FM200200 26006KT P6SM BKN040 FM200900 31006KT P6SM BKN020
KSUS 
10nm W 
190520Z 1906/2006 VRB04KT P6SM SCT060 BKN250 FM190900 VRB04KT P6SM VCSH BKN050 FM191500 22007KT P6SM VCTS BKN040CB TEMPO 1922/1924 3SM TSRA OVC030CB FM200200 26006KT P6SM BKN040
KCPS 
16nm SE 
190520Z 1906/2006 VRB04KT P6SM SCT060 BKN250 FM190900 VRB04KT P6SM VCSH BKN050 FM191500 22007KT P6SM VCTS BKN040CB TEMPO 1922/1924 3SM TSRA OVC030CB FM200200 26006KT P6SM BKN040
NOTAMs
Click for the latest NOTAMs
NOTAMs are issued by the DoD/FAA and will open in a separate window not controlled by AirNav.

 

 
 

Would you like to see your business listed on this page?

 If your business provides an interesting product or service to pilots, flight crews, aircraft, or users of the Holiday Inn Westport Heliport, you should consider listing it here.  To start the listing process, click on the button below
 
Add a business
 

Other Pages about Holiday Inn Westport Heliport

Update a link
 
Copyright © AirNav, LLC. All rights reserved. Privacy Policy  Contact